createdAt,value
2023-01-12T00:00:06.141Z,0.37
2023-01-12T00:01:07.829Z,0.25
2023-01-12T00:02:07.457Z,0.53
2023-01-12T00:03:04.360Z,0.54
2023-01-12T00:04:03.071Z,0.66
2023-01-12T00:04:59.817Z,0.69
2023-01-12T00:06:00.210Z,0.65
2023-01-12T00:06:58.084Z,0.56
2023-01-12T00:07:54.674Z,0.38
2023-01-12T00:08:52.451Z,0.28
2023-01-12T00:09:49.158Z,0.27
2023-01-12T00:10:45.800Z,0.34
2023-01-12T00:11:42.703Z,0.23
2023-01-12T00:12:39.297Z,0.25
2023-01-12T00:13:35.944Z,0.23
2023-01-12T00:14:37.289Z,0.26
2023-01-12T00:15:55.379Z,0.31
2023-01-12T00:16:52.017Z,0.32
2023-01-12T00:17:48.612Z,0.33
2023-01-12T00:18:45.842Z,0.18
2023-01-12T00:19:42.563Z,0.23
2023-01-12T00:20:39.172Z,0.15
2023-01-12T00:22:01.766Z,0.21
2023-01-12T00:22:58.437Z,0.16
2023-01-12T00:23:55.059Z,0.23
2023-01-12T00:24:52.643Z,0.44
2023-01-12T00:25:52.378Z,0.31
2023-01-12T00:26:50.045Z,0.22
2023-01-12T00:27:49.298Z,0.18
2023-01-12T00:28:45.929Z,0.19
2023-01-12T00:29:42.625Z,0.19
2023-01-12T00:30:39.247Z,0.22
2023-01-12T00:31:35.824Z,0.25
2023-01-12T00:32:32.465Z,0.58
2023-01-12T00:33:29.042Z,0.71
2023-01-12T00:34:28.555Z,1.01
2023-01-12T00:35:25.935Z,1.22
2023-01-12T00:36:22.687Z,1.30
2023-01-12T00:37:19.940Z,1.38
2023-01-12T00:38:16.501Z,1.42
2023-01-12T00:39:14.746Z,1.37
2023-01-12T00:40:11.980Z,1.50
2023-01-12T00:41:11.286Z,1.42
2023-01-12T00:42:26.418Z,1.29
2023-01-12T00:43:41.694Z,1.03
2023-01-12T00:44:57.234Z,0.77
2023-01-12T00:45:53.919Z,0.90
2023-01-12T00:46:50.528Z,0.78
2023-01-12T00:47:47.413Z,0.64
2023-01-12T00:48:44.490Z,0.57
2023-01-12T00:49:42.011Z,0.73
2023-01-12T00:50:38.892Z,0.71
2023-01-12T00:51:35.589Z,0.16
2023-01-12T00:52:32.325Z,0.56
2023-01-12T00:53:28.906Z,0.55
2023-01-12T00:54:25.487Z,0.18
2023-01-12T00:55:22.129Z,0.31
2023-01-12T00:56:18.743Z,0.71
2023-01-12T00:57:17.625Z,0.71
2023-01-12T00:58:14.239Z,0.72
2023-01-12T00:59:10.848Z,0.61
2023-01-12T01:00:08.334Z,0.61
2023-01-12T01:01:06.750Z,0.56
2023-01-12T01:02:05.371Z,0.51
2023-01-12T01:03:02.029Z,0.52
2023-01-12T01:03:58.695Z,0.48
2023-01-12T01:04:56.066Z,0.30
2023-01-12T01:05:52.683Z,0.51
2023-01-12T01:06:49.711Z,0.52
2023-01-12T01:07:47.460Z,0.49
2023-01-12T01:08:44.065Z,0.55
2023-01-12T01:09:40.678Z,0.62
2023-01-12T01:10:37.278Z,0.58
2023-01-12T01:11:34.655Z,0.60
2023-01-12T01:12:31.226Z,0.88
2023-01-12T01:13:27.860Z,0.68
2023-01-12T01:14:25.384Z,0.46
2023-01-12T01:15:22.002Z,0.42
2023-01-12T01:16:18.869Z,0.57
2023-01-12T01:17:15.755Z,0.71
2023-01-12T01:18:12.379Z,0.63
2023-01-12T01:19:10.481Z,0.28
2023-01-12T01:20:07.516Z,0.71
2023-01-12T01:21:04.977Z,0.68
2023-01-12T01:22:01.671Z,0.64
2023-01-12T01:22:58.249Z,0.57
2023-01-12T01:23:54.949Z,0.59
2023-01-12T01:24:51.608Z,0.60
2023-01-12T01:25:48.238Z,0.56
2023-01-12T01:26:44.926Z,0.55
2023-01-12T01:27:41.563Z,0.45
2023-01-12T01:28:38.306Z,0.64
2023-01-12T01:29:34.968Z,0.63
2023-01-12T01:30:31.588Z,0.63
2023-01-12T01:31:28.298Z,0.63
2023-01-12T01:32:24.898Z,0.61
2023-01-12T01:33:21.560Z,0.69
2023-01-12T01:34:18.234Z,0.56
2023-01-12T01:35:14.946Z,0.77
2023-01-12T01:36:12.275Z,0.70
2023-01-12T01:37:08.864Z,0.83
2023-01-12T01:38:06.401Z,0.88
2023-01-12T01:39:03.225Z,0.94
2023-01-12T01:39:59.883Z,1.20
2023-01-12T01:40:57.055Z,1.28
2023-01-12T01:41:53.775Z,0.96
2023-01-12T01:42:50.468Z,1.02
2023-01-12T01:43:59.413Z,1.08
2023-01-12T01:44:59.762Z,0.74
2023-01-12T01:46:21.609Z,0.87
2023-01-12T01:47:28.363Z,0.76
2023-01-12T01:48:27.223Z,0.76
2023-01-12T01:49:50.282Z,0.73
2023-01-12T01:50:55.033Z,0.71
2023-01-12T01:51:55.457Z,0.64
2023-01-12T01:52:58.541Z,0.64
2023-01-12T01:53:55.199Z,0.63
2023-01-12T01:55:01.700Z,0.67
2023-01-12T01:56:22.103Z,0.68
2023-01-12T01:57:19.068Z,0.73
2023-01-12T01:58:24.279Z,0.81
2023-01-12T01:59:25.103Z,0.67
2023-01-12T02:00:23.263Z,0.71
2023-01-12T02:01:20.090Z,0.75
2023-01-12T02:02:17.761Z,0.72
2023-01-12T02:03:16.422Z,0.74
2023-01-12T02:04:14.081Z,0.78
2023-01-12T02:05:11.868Z,0.73
2023-01-12T02:06:09.154Z,0.54
2023-01-12T02:07:07.183Z,0.63
2023-01-12T02:08:31.068Z,0.66
2023-01-12T02:09:30.730Z,0.66
2023-01-12T02:10:27.365Z,0.70
2023-01-12T02:11:54.773Z,0.69
2023-01-12T02:13:09.991Z,0.74
2023-01-12T02:14:25.430Z,0.82
2023-01-12T02:15:45.192Z,0.92
2023-01-12T02:16:58.699Z,0.86
2023-01-12T02:18:27.506Z,1.02
2023-01-12T02:19:33.291Z,1.07
2023-01-12T02:20:40.030Z,1.05
2023-01-12T02:21:55.325Z,0.90
2023-01-12T02:23:01.085Z,0.78
2023-01-12T02:24:12.605Z,0.80
2023-01-12T02:25:45.771Z,0.71
2023-01-12T02:27:03.687Z,0.59
2023-01-12T02:28:25.221Z,0.66
2023-01-12T02:29:30.838Z,0.80
2023-01-12T02:31:11.703Z,0.91
2023-01-12T02:32:40.407Z,0.99
2023-01-12T02:33:54.681Z,1.10
2023-01-12T02:35:05.767Z,1.09
2023-01-12T02:36:10.391Z,0.82
2023-01-12T02:37:36.742Z,1.05
2023-01-12T02:39:02.106Z,1.05
2023-01-12T02:40:07.918Z,1.01
2023-01-12T02:41:47.286Z,1.08
2023-01-12T02:42:55.835Z,1.41
2023-01-12T02:43:52.969Z,1.30
2023-01-12T02:45:27.870Z,1.30
2023-01-12T02:46:28.756Z,0.79
2023-01-12T02:47:34.684Z,0.98
2023-01-12T02:48:47.193Z,1.00
2023-01-12T02:49:51.099Z,1.01
2023-01-12T02:51:06.317Z,1.03
2023-01-12T02:52:10.538Z,0.90
2023-01-12T02:53:18.183Z,0.88
2023-01-12T02:54:18.747Z,0.63
2023-01-12T02:55:18.000Z,0.71
2023-01-12T02:56:38.173Z,0.90
2023-01-12T02:57:37.411Z,0.72
2023-01-12T02:58:38.929Z,0.59
2023-01-12T02:59:39.165Z,0.91
2023-01-12T03:00:38.356Z,0.93
2023-01-12T03:01:37.322Z,0.94
2023-01-12T03:02:34.558Z,0.93
2023-01-12T03:03:31.767Z,0.83
2023-01-12T03:04:30.214Z,0.56
2023-01-12T03:05:27.301Z,0.75
2023-01-12T03:06:23.882Z,0.74
2023-01-12T03:07:28.456Z,0.64
2023-01-12T03:08:29.019Z,0.71
2023-01-12T03:09:28.732Z,0.62
2023-01-12T03:10:49.402Z,0.55
2023-01-12T03:11:52.016Z,0.39
2023-01-12T03:12:51.497Z,0.13
2023-01-12T03:13:55.623Z,0.34
2023-01-12T03:14:55.503Z,0.40
2023-01-12T03:15:56.127Z,0.48
2023-01-12T03:16:56.698Z,0.63
2023-01-12T03:18:00.755Z,0.71
2023-01-12T03:19:18.036Z,0.59
2023-01-12T03:20:32.898Z,0.05
2023-01-12T03:21:55.392Z,0.60
2023-01-12T03:22:57.723Z,0.50
2023-01-12T03:24:08.899Z,0.46
2023-01-12T03:25:11.253Z,0.64
2023-01-12T03:26:11.562Z,0.69
2023-01-12T03:27:21.996Z,0.63
2023-01-12T03:28:21.271Z,0.63
2023-01-12T03:29:35.091Z,0.58
2023-01-12T03:30:41.731Z,0.74
2023-01-12T03:31:38.765Z,0.82
2023-01-12T03:32:35.771Z,0.10
2023-01-12T03:33:32.400Z,0.89
2023-01-12T03:34:29.134Z,0.91
2023-01-12T03:35:28.067Z,0.80
2023-01-12T03:36:45.911Z,0.90
2023-01-12T03:37:55.014Z,0.94
2023-01-12T03:38:57.497Z,0.92
2023-01-12T03:40:03.167Z,0.96
2023-01-12T03:41:19.845Z,0.97
2023-01-12T03:42:24.770Z,1.00
2023-01-12T03:43:42.795Z,0.96
2023-01-12T03:45:00.905Z,1.00
2023-01-12T03:46:14.358Z,0.99
2023-01-12T03:47:18.440Z,0.99
2023-01-12T03:48:36.613Z,0.95
2023-01-12T03:49:38.182Z,0.92
2023-01-12T03:50:41.553Z,0.87
2023-01-12T03:51:43.529Z,0.81
2023-01-12T03:52:42.392Z,0.80
2023-01-12T03:53:41.931Z,0.81
2023-01-12T03:54:40.647Z,0.82
2023-01-12T03:55:38.552Z,0.93
2023-01-12T03:56:36.425Z,0.92
2023-01-12T03:57:34.838Z,0.93
2023-01-12T03:58:34.920Z,1.00
2023-01-12T03:59:31.616Z,0.90
2023-01-12T04:00:30.150Z,0.93
2023-01-12T04:01:26.959Z,0.70
2023-01-12T04:02:23.631Z,1.08
2023-01-12T04:03:20.328Z,0.95
2023-01-12T04:04:17.343Z,0.89
2023-01-12T04:05:15.242Z,0.74
2023-01-12T04:06:11.890Z,0.89
2023-01-12T04:07:08.482Z,0.92
2023-01-12T04:08:05.520Z,0.89
2023-01-12T04:09:02.408Z,0.78
2023-01-12T04:09:59.115Z,0.70
2023-01-12T04:10:56.268Z,0.63
2023-01-12T04:12:11.658Z,0.65
2023-01-12T04:13:08.348Z,0.67
2023-01-12T04:14:04.994Z,0.84
2023-01-12T04:15:01.629Z,0.97
2023-01-12T04:15:58.245Z,1.02
2023-01-12T04:16:54.855Z,0.96
2023-01-12T04:17:51.566Z,1.02
2023-01-12T04:18:48.213Z,1.13
2023-01-12T04:19:44.934Z,1.03
2023-01-12T04:20:41.580Z,1.06
2023-01-12T04:21:56.744Z,1.11
2023-01-12T04:22:53.340Z,1.02
2023-01-12T04:23:50.003Z,0.95
2023-01-12T04:24:46.823Z,0.72
2023-01-12T04:25:43.439Z,0.77
2023-01-12T04:26:40.044Z,0.98
2023-01-12T04:27:36.995Z,1.15
2023-01-12T04:28:33.644Z,1.07
2023-01-12T04:29:30.214Z,1.10
2023-01-12T04:30:28.340Z,1.23
2023-01-12T04:31:25.084Z,0.79
2023-01-12T04:32:22.271Z,1.01
2023-01-12T04:33:19.306Z,0.96
2023-01-12T04:34:15.957Z,0.93
2023-01-12T04:35:13.293Z,0.91
2023-01-12T04:36:13.891Z,1.12
2023-01-12T04:37:10.499Z,1.12
2023-01-12T04:38:08.606Z,0.86
2023-01-12T04:39:05.303Z,1.10
2023-01-12T04:40:02.151Z,1.26
2023-01-12T04:40:58.860Z,1.32
2023-01-12T04:41:55.618Z,1.00
2023-01-12T04:43:08.381Z,1.18
2023-01-12T04:44:05.193Z,1.13
2023-01-12T04:45:01.801Z,1.29
2023-01-12T04:45:58.659Z,1.22
2023-01-12T04:46:55.432Z,1.04
2023-01-12T04:47:52.084Z,1.20
2023-01-12T04:48:48.642Z,1.23
2023-01-12T04:49:45.228Z,1.12
2023-01-12T04:50:44.469Z,1.35
2023-01-12T04:51:41.065Z,1.25
2023-01-12T04:52:38.249Z,1.19
2023-01-12T04:53:34.904Z,1.02
2023-01-12T04:54:31.515Z,1.19
2023-01-12T04:55:28.190Z,1.18
2023-01-12T04:56:24.789Z,1.14
2023-01-12T04:57:21.343Z,1.13
2023-01-12T04:58:18.218Z,1.17
2023-01-12T04:59:14.819Z,1.10
2023-01-12T05:00:11.851Z,1.03
2023-01-12T05:01:14.003Z,1.07
2023-01-12T05:02:10.761Z,1.16
2023-01-12T05:03:07.360Z,1.29
2023-01-12T05:04:05.636Z,1.21
2023-01-12T05:05:05.424Z,1.13
2023-01-12T05:06:03.269Z,1.03
2023-01-12T05:06:59.932Z,1.00
2023-01-12T05:08:18.221Z,0.99
2023-01-12T05:09:33.221Z,1.08
2023-01-12T05:10:30.418Z,1.12
2023-01-12T05:11:28.776Z,1.16
2023-01-12T05:12:25.409Z,1.23
2023-01-12T05:13:23.011Z,1.19
2023-01-12T05:14:19.635Z,1.27
2023-01-12T05:15:16.297Z,1.29
2023-01-12T05:16:16.386Z,1.41
2023-01-12T05:17:13.086Z,1.06
2023-01-12T05:18:09.713Z,1.32
2023-01-12T05:19:06.312Z,1.31
2023-01-12T05:20:03.155Z,1.24
2023-01-12T05:20:59.723Z,1.19
2023-01-12T05:21:56.373Z,1.27
2023-01-12T05:22:53.066Z,0.91
2023-01-12T05:23:51.375Z,1.11
2023-01-12T05:24:48.188Z,1.00
2023-01-12T05:25:44.808Z,0.96
2023-01-12T05:26:41.404Z,0.78
2023-01-12T05:27:37.984Z,0.71
2023-01-12T05:28:35.231Z,0.93
2023-01-12T05:29:31.833Z,0.87
2023-01-12T05:30:31.710Z,1.04
2023-01-12T05:31:28.671Z,0.97
2023-01-12T05:32:26.295Z,0.93
2023-01-12T05:33:23.002Z,0.82
2023-01-12T05:34:19.903Z,0.86
2023-01-12T05:35:16.514Z,0.32
2023-01-12T05:36:15.128Z,0.91
2023-01-12T05:37:11.795Z,0.82
2023-01-12T05:38:08.448Z,0.84
2023-01-12T05:39:05.617Z,0.80
2023-01-12T05:40:02.274Z,0.92
2023-01-12T05:41:01.099Z,1.01
2023-01-12T05:42:16.257Z,0.82
2023-01-12T05:43:32.553Z,0.88
2023-01-12T05:44:29.104Z,0.83
2023-01-12T05:45:25.781Z,0.84
2023-01-12T05:46:33.456Z,1.03
2023-01-12T05:47:30.146Z,1.04
2023-01-12T05:48:26.894Z,0.96
2023-01-12T05:49:23.539Z,0.98
2023-01-12T05:50:20.153Z,0.91
2023-01-12T05:51:18.615Z,1.02
2023-01-12T05:52:15.214Z,1.01
2023-01-12T05:53:11.919Z,0.94
2023-01-12T05:54:08.810Z,0.94
2023-01-12T05:55:06.017Z,0.95
2023-01-12T05:56:19.323Z,0.92
2023-01-12T05:57:16.042Z,0.95
2023-01-12T05:58:12.742Z,0.99
2023-01-12T05:59:11.682Z,0.87
2023-01-12T06:00:09.101Z,1.07
2023-01-12T06:01:09.955Z,1.15
2023-01-12T06:02:06.695Z,1.24
2023-01-12T06:03:03.587Z,1.04
2023-01-12T06:04:01.806Z,1.28
2023-01-12T06:04:58.854Z,1.15
2023-01-12T06:05:58.381Z,1.29
2023-01-12T06:06:55.094Z,1.32
2023-01-12T06:07:51.705Z,1.19
2023-01-12T06:08:50.705Z,1.18
2023-01-12T06:09:48.823Z,1.17
2023-01-12T06:10:45.513Z,1.13
2023-01-12T06:12:00.790Z,1.06
2023-01-12T06:13:15.618Z,1.03
2023-01-12T06:14:12.344Z,0.98
2023-01-12T06:15:09.345Z,0.92
2023-01-12T06:16:09.306Z,0.94
2023-01-12T06:17:06.110Z,0.30
2023-01-12T06:18:02.639Z,0.97
2023-01-12T06:18:59.292Z,0.94
2023-01-12T06:19:55.912Z,0.95
2023-01-12T06:20:52.554Z,0.94
2023-01-12T06:21:49.172Z,0.97
2023-01-12T06:22:45.829Z,1.03
2023-01-12T06:23:42.444Z,1.26
2023-01-12T06:24:39.104Z,1.25
2023-01-12T06:25:35.696Z,1.18
2023-01-12T06:26:32.336Z,1.18
2023-01-12T06:27:33.244Z,1.18
2023-01-12T06:28:29.904Z,1.20
2023-01-12T06:29:26.664Z,1.17
2023-01-12T06:30:24.099Z,1.05
2023-01-12T06:31:20.844Z,1.24
2023-01-12T06:32:17.539Z,1.20
2023-01-12T06:33:14.587Z,1.15
2023-01-12T06:34:12.117Z,1.05
2023-01-12T06:35:18.623Z,1.09
2023-01-12T06:36:15.935Z,1.15
2023-01-12T06:37:13.137Z,1.18
2023-01-12T06:38:09.715Z,1.22
2023-01-12T06:39:06.409Z,1.17
2023-01-12T06:40:03.117Z,1.17
2023-01-12T06:41:03.668Z,1.44
2023-01-12T06:42:19.686Z,1.35
2023-01-12T06:43:16.813Z,1.27
2023-01-12T06:44:13.492Z,1.28
2023-01-12T06:45:10.801Z,1.30
2023-01-12T06:46:07.441Z,1.34
2023-01-12T06:47:04.659Z,1.18
2023-01-12T06:48:01.284Z,1.23
2023-01-12T06:48:58.760Z,1.05
2023-01-12T06:49:55.389Z,1.11
2023-01-12T06:51:01.980Z,1.09
2023-01-12T06:51:58.581Z,1.14
2023-01-12T06:52:56.371Z,0.77
2023-01-12T06:53:53.474Z,1.24
2023-01-12T06:54:51.027Z,1.28
2023-01-12T06:55:51.680Z,1.45
2023-01-12T06:56:48.327Z,1.05
2023-01-12T06:57:44.943Z,0.93
2023-01-12T06:58:44.456Z,1.06
2023-01-12T06:59:44.013Z,1.03
2023-01-12T07:00:40.597Z,0.97
2023-01-12T07:01:37.285Z,0.86
2023-01-12T07:02:34.049Z,1.20
2023-01-12T07:03:30.813Z,0.92
2023-01-12T07:04:27.754Z,1.12
2023-01-12T07:05:24.568Z,1.16
2023-01-12T07:06:21.401Z,1.12
2023-01-12T07:07:17.990Z,1.37
2023-01-12T07:08:19.134Z,1.44
2023-01-12T07:09:15.736Z,1.34
2023-01-12T07:10:12.807Z,1.07
2023-01-12T07:11:09.960Z,1.47
2023-01-12T07:12:07.108Z,1.34
2023-01-12T07:13:03.903Z,1.28
2023-01-12T07:14:00.479Z,1.33
2023-01-12T07:14:59.368Z,1.17
2023-01-12T07:15:58.977Z,1.46
2023-01-12T07:16:55.686Z,1.57
2023-01-12T07:17:57.197Z,1.23
2023-01-12T07:18:53.788Z,1.20
2023-01-12T07:19:50.613Z,1.55
2023-01-12T07:20:48.720Z,1.32
2023-01-12T07:21:45.418Z,1.36
2023-01-12T07:22:42.120Z,1.37
2023-01-12T07:23:42.136Z,1.59
2023-01-12T07:24:38.765Z,1.74
2023-01-12T07:25:35.427Z,1.33
2023-01-12T07:26:32.060Z,1.47
2023-01-12T07:27:28.636Z,1.62
2023-01-12T07:28:25.228Z,1.34
2023-01-12T07:29:21.866Z,1.33
2023-01-12T07:30:20.362Z,1.49
2023-01-12T07:31:19.367Z,1.23
2023-01-12T07:32:16.061Z,1.59
2023-01-12T07:33:15.451Z,1.66
2023-01-12T07:34:13.247Z,1.91
2023-01-12T07:35:10.115Z,1.75
2023-01-12T07:36:06.926Z,1.71
2023-01-12T07:37:03.535Z,1.66
2023-01-12T07:38:00.111Z,1.93
2023-01-12T07:38:56.787Z,1.53
2023-01-12T07:39:53.399Z,1.59
2023-01-12T07:40:50.092Z,1.49
2023-01-12T07:42:05.009Z,1.58
2023-01-12T07:43:07.449Z,1.42
2023-01-12T07:44:04.034Z,1.41
2023-01-12T07:45:01.107Z,1.57
2023-01-12T07:45:59.403Z,1.58
2023-01-12T07:46:56.071Z,1.85
2023-01-12T07:47:56.210Z,2.21
2023-01-12T07:48:52.907Z,2.26
2023-01-12T07:49:49.537Z,2.27
2023-01-12T07:50:46.110Z,2.49
2023-01-12T07:51:42.707Z,2.40
2023-01-12T07:52:41.496Z,2.35
2023-01-12T07:53:38.164Z,2.39
2023-01-12T07:54:36.111Z,2.53
2023-01-12T07:55:33.092Z,2.52
2023-01-12T07:56:29.664Z,2.45
2023-01-12T07:57:26.377Z,2.36
2023-01-12T07:58:22.887Z,2.15
2023-01-12T07:59:19.818Z,2.33
2023-01-12T08:00:16.835Z,2.30
2023-01-12T08:01:13.487Z,2.36
2023-01-12T08:02:16.582Z,2.36
2023-01-12T08:03:14.957Z,2.30
2023-01-12T08:04:11.755Z,2.53
2023-01-12T08:05:08.766Z,2.60
2023-01-12T08:06:06.155Z,2.78
2023-01-12T08:07:03.289Z,2.82
2023-01-12T08:08:01.149Z,2.78
2023-01-12T08:08:59.216Z,2.80
2023-01-12T08:09:55.763Z,2.89
2023-01-12T08:10:52.347Z,2.81
2023-01-12T08:11:48.945Z,2.79
2023-01-12T08:12:45.646Z,2.75
2023-01-12T08:13:42.381Z,2.69
2023-01-12T08:14:41.575Z,2.70
2023-01-12T08:15:45.419Z,2.88
2023-01-12T08:16:46.220Z,3.02
2023-01-12T08:17:54.854Z,2.92
2023-01-12T08:18:58.071Z,2.53
2023-01-12T08:19:59.701Z,2.79
2023-01-12T08:21:00.908Z,2.73
2023-01-12T08:22:01.192Z,2.69
2023-01-12T08:23:04.109Z,2.72
2023-01-12T08:24:05.149Z,2.84
2023-01-12T08:25:10.685Z,3.06
2023-01-12T08:26:13.533Z,2.96
2023-01-12T08:27:10.998Z,2.80
2023-01-12T08:28:09.550Z,2.74
2023-01-12T08:29:17.296Z,2.79
2023-01-12T08:30:16.998Z,2.78
2023-01-12T08:31:15.517Z,2.68
2023-01-12T08:32:13.974Z,2.64
2023-01-12T08:33:10.621Z,2.58
2023-01-12T08:34:08.819Z,2.82
2023-01-12T08:35:06.309Z,2.55
2023-01-12T08:36:05.218Z,2.61
2023-01-12T08:37:05.715Z,2.31
2023-01-12T08:38:02.377Z,2.79
2023-01-12T08:39:01.381Z,2.73
2023-01-12T08:39:58.352Z,2.72
2023-01-12T08:41:13.235Z,2.25
2023-01-12T08:42:09.869Z,2.72
2023-01-12T08:43:06.471Z,2.79
2023-01-12T08:44:09.270Z,2.50
2023-01-12T08:45:09.313Z,2.38
2023-01-12T08:46:08.158Z,2.81
2023-01-12T08:47:06.509Z,2.81
2023-01-12T08:48:03.223Z,2.97
2023-01-12T08:49:00.515Z,2.84
2023-01-12T08:49:59.367Z,2.71
2023-01-12T08:50:59.677Z,2.90
2023-01-12T08:51:56.724Z,2.99
2023-01-12T08:52:53.595Z,3.34
2023-01-12T08:53:50.316Z,3.11
2023-01-12T08:54:47.503Z,3.12
2023-01-12T08:55:44.084Z,3.00
2023-01-12T08:56:40.833Z,2.92
2023-01-12T08:57:38.440Z,2.95
2023-01-12T08:58:35.559Z,3.06
2023-01-12T08:59:32.275Z,2.74
2023-01-12T09:00:29.130Z,3.23
2023-01-12T09:01:25.892Z,3.24
2023-01-12T09:02:25.357Z,3.21
2023-01-12T09:03:22.336Z,3.21
2023-01-12T09:04:19.002Z,3.22
2023-01-12T09:05:16.643Z,3.30
2023-01-12T09:06:19.036Z,3.64
2023-01-12T09:07:17.146Z,3.26
2023-01-12T09:08:14.718Z,3.12
2023-01-12T09:09:13.950Z,3.36
2023-01-12T09:10:10.765Z,3.20
2023-01-12T09:11:10.327Z,3.37
2023-01-12T09:12:07.370Z,3.30
2023-01-12T09:13:04.074Z,3.36
2023-01-12T09:14:01.852Z,3.65
2023-01-12T09:14:58.486Z,3.35
2023-01-12T09:16:11.179Z,3.30
2023-01-12T09:17:09.091Z,3.22
2023-01-12T09:18:05.777Z,2.95
2023-01-12T09:19:03.818Z,3.36
2023-01-12T09:20:00.646Z,3.32
2023-01-12T09:21:07.801Z,3.44
2023-01-12T09:22:04.402Z,3.49
2023-01-12T09:23:04.040Z,3.54
2023-01-12T09:24:00.748Z,3.36
2023-01-12T09:24:57.353Z,3.60
2023-01-12T09:25:54.062Z,3.75
2023-01-12T09:26:50.696Z,3.29
2023-01-12T09:27:47.326Z,3.65
2023-01-12T09:28:46.470Z,3.65
2023-01-12T09:29:43.106Z,3.69
2023-01-12T09:30:39.741Z,3.98
2023-01-12T09:31:39.027Z,3.93
2023-01-12T09:32:37.242Z,3.80
2023-01-12T09:33:37.131Z,3.75
2023-01-12T09:34:33.766Z,3.79
2023-01-12T09:35:30.725Z,3.83
2023-01-12T09:36:35.815Z,3.91
2023-01-12T09:37:32.423Z,4.09
2023-01-12T09:38:29.264Z,4.15
2023-01-12T09:39:28.489Z,4.26
2023-01-12T09:40:25.386Z,3.47
2023-01-12T09:41:54.268Z,3.49
2023-01-12T09:43:10.477Z,3.80
2023-01-12T09:45:07.638Z,3.88
2023-01-12T09:46:39.603Z,3.77
2023-01-12T09:47:49.031Z,3.92
2023-01-12T09:48:45.907Z,4.26
2023-01-12T09:49:50.328Z,4.07
2023-01-12T09:50:50.955Z,3.85
2023-01-12T09:51:56.968Z,4.02
2023-01-12T09:52:57.364Z,3.94
2023-01-12T09:53:54.150Z,3.78
2023-01-12T09:54:52.885Z,3.50
2023-01-12T09:56:15.381Z,3.88
2023-01-12T09:57:49.312Z,3.78
2023-01-12T09:59:13.845Z,3.89
2023-01-12T10:00:17.366Z,3.84
2023-01-12T10:01:28.254Z,3.93
2023-01-12T10:02:27.004Z,4.20
2023-01-12T10:03:31.940Z,4.21
2023-01-12T10:04:28.901Z,4.07
2023-01-12T10:05:48.917Z,3.66
2023-01-12T10:06:45.569Z,3.82
2023-01-12T10:07:42.393Z,3.75
2023-01-12T10:08:40.412Z,3.59
2023-01-12T10:09:37.981Z,3.66
2023-01-12T10:10:34.766Z,3.98
2023-01-12T10:12:03.960Z,3.88
2023-01-12T10:13:07.229Z,3.89
2023-01-12T10:14:06.528Z,3.81
2023-01-12T10:15:30.887Z,4.02
2023-01-12T10:16:56.773Z,3.80
2023-01-12T10:18:08.982Z,3.83
2023-01-12T10:19:18.683Z,3.97
2023-01-12T10:20:24.124Z,4.10
2023-01-12T10:21:23.643Z,4.26
2023-01-12T10:22:37.921Z,3.92
2023-01-12T10:23:34.846Z,4.30
2023-01-12T10:24:32.036Z,4.31
2023-01-12T10:25:37.545Z,4.42
2023-01-12T10:26:40.849Z,4.21
2023-01-12T10:27:42.773Z,3.80
2023-01-12T10:28:44.816Z,4.02
2023-01-12T10:29:41.927Z,3.69
2023-01-12T10:30:40.686Z,3.85
2023-01-12T10:31:37.631Z,4.47
2023-01-12T10:32:41.980Z,4.21
2023-01-12T10:33:41.253Z,4.38
2023-01-12T10:34:52.258Z,4.47
2023-01-12T10:35:58.025Z,4.19
2023-01-12T10:37:00.882Z,3.81
2023-01-12T10:37:57.599Z,3.47
2023-01-12T10:39:03.448Z,3.65
2023-01-12T10:40:00.133Z,3.28
2023-01-12T10:41:16.713Z,3.59
2023-01-12T10:42:35.867Z,3.41
2023-01-12T10:43:34.290Z,3.63
2023-01-12T10:44:30.985Z,3.88
2023-01-12T10:45:30.358Z,3.89
2023-01-12T10:46:31.696Z,3.93
2023-01-12T10:47:28.426Z,3.72
2023-01-12T10:48:26.753Z,4.09
2023-01-12T10:49:24.604Z,3.92
2023-01-12T10:50:33.903Z,3.83
2023-01-12T10:51:34.952Z,3.70
2023-01-12T10:52:41.304Z,3.67
2023-01-12T10:53:52.292Z,3.48
2023-01-12T10:54:49.636Z,3.72
2023-01-12T10:55:47.531Z,3.81
2023-01-12T10:56:53.971Z,3.62
2023-01-12T10:57:52.544Z,3.99
2023-01-12T10:59:03.086Z,3.98
2023-01-12T11:00:02.761Z,3.95
2023-01-12T11:00:59.795Z,4.28
2023-01-12T11:01:59.148Z,4.05
2023-01-12T11:02:56.415Z,3.85
2023-01-12T11:04:04.963Z,3.98
2023-01-12T11:05:01.583Z,4.17
2023-01-12T11:06:23.869Z,3.70
2023-01-12T11:07:31.102Z,3.89
2023-01-12T11:08:28.430Z,3.47
2023-01-12T11:09:27.993Z,3.80
2023-01-12T11:10:36.654Z,3.87
2023-01-12T11:11:33.693Z,4.06
2023-01-12T11:12:37.730Z,3.81
2023-01-12T11:13:37.528Z,3.69
2023-01-12T11:14:39.427Z,3.73
2023-01-12T11:15:39.276Z,3.87
2023-01-12T11:16:50.247Z,4.05
2023-01-12T11:18:28.747Z,3.99
2023-01-12T11:19:52.084Z,4.26
2023-01-12T11:20:54.273Z,3.99
2023-01-12T11:22:00.021Z,4.18
2023-01-12T11:23:01.631Z,4.19
2023-01-12T11:24:21.596Z,4.18
2023-01-12T11:25:25.950Z,4.32
2023-01-12T11:26:28.779Z,4.43
2023-01-12T11:27:35.765Z,4.39
2023-01-12T11:28:44.888Z,4.04
2023-01-12T11:30:07.531Z,4.21
2023-01-12T11:31:11.996Z,3.96
2023-01-12T11:32:26.383Z,4.06
2023-01-12T11:33:25.421Z,3.70
2023-01-12T11:34:36.192Z,2.80
2023-01-12T11:35:41.854Z,3.71
2023-01-12T11:36:43.809Z,3.62
2023-01-12T11:37:42.708Z,3.80
2023-01-12T11:38:47.946Z,3.99
2023-01-12T11:39:52.577Z,3.94
2023-01-12T11:40:49.771Z,3.85
2023-01-12T11:42:18.084Z,3.69
2023-01-12T11:43:50.153Z,3.86
2023-01-12T11:45:01.791Z,3.82
2023-01-12T11:46:07.574Z,3.44
2023-01-12T11:47:15.596Z,3.55
2023-01-12T11:48:22.779Z,3.29
2023-01-12T11:49:33.077Z,3.42
2023-01-12T11:50:37.490Z,3.44
2023-01-12T11:51:34.250Z,3.59
2023-01-12T11:52:31.343Z,3.91
2023-01-12T11:53:28.078Z,3.54
2023-01-12T11:54:30.465Z,3.52
2023-01-12T11:55:55.404Z,3.67
2023-01-12T11:56:57.823Z,3.45
2023-01-12T11:58:00.748Z,3.45
2023-01-12T11:59:15.241Z,3.25
2023-01-12T12:00:35.402Z,3.40
2023-01-12T12:01:38.016Z,3.70
2023-01-12T12:02:54.040Z,3.66
2023-01-12T12:04:04.212Z,3.53
2023-01-12T12:05:26.094Z,3.20
2023-01-12T12:06:34.952Z,3.10
2023-01-12T12:07:31.533Z,3.21
2023-01-12T12:08:45.732Z,3.33
2023-01-12T12:10:09.629Z,3.12
2023-01-12T12:11:26.007Z,3.13
2023-01-12T12:12:22.666Z,3.36
2023-01-12T12:14:08.431Z,3.34
2023-01-12T12:15:27.132Z,3.45
2023-01-12T12:16:34.522Z,3.27
2023-01-12T12:17:45.263Z,3.39
2023-01-12T12:18:54.013Z,3.39
2023-01-12T12:20:00.772Z,3.36
2023-01-12T12:21:00.369Z,3.21
2023-01-12T12:22:23.602Z,2.97
2023-01-12T12:23:41.468Z,3.43
2023-01-12T12:25:11.202Z,3.57
2023-01-12T12:26:24.166Z,3.70
2023-01-12T12:27:38.668Z,3.74
2023-01-12T12:28:38.230Z,3.74
2023-01-12T12:29:38.196Z,3.56
2023-01-12T12:30:58.019Z,3.52
2023-01-12T12:31:57.839Z,3.68
2023-01-12T12:33:14.324Z,3.75
2023-01-12T12:34:28.658Z,3.59
2023-01-12T12:35:43.933Z,3.78
2023-01-12T12:36:58.242Z,3.90
2023-01-12T12:38:13.407Z,3.92
2023-01-12T12:39:31.138Z,3.96
2023-01-12T12:40:27.733Z,3.81
2023-01-12T12:42:00.409Z,3.83
2023-01-12T12:43:39.649Z,3.68
2023-01-12T12:45:06.780Z,3.71
2023-01-12T12:46:16.827Z,3.91
2023-01-12T12:47:37.540Z,3.85
2023-01-12T12:48:55.233Z,3.90
2023-01-12T12:49:56.371Z,3.89
2023-01-12T12:51:04.287Z,3.98
2023-01-12T12:52:01.863Z,4.05
2023-01-12T12:53:13.414Z,3.95
2023-01-12T12:54:18.804Z,3.91
2023-01-12T12:55:15.783Z,3.68
2023-01-12T12:56:16.178Z,3.77
2023-01-12T12:57:14.065Z,3.73
2023-01-12T12:58:22.713Z,3.81
2023-01-12T12:59:31.640Z,3.73
2023-01-12T13:00:31.433Z,3.61
2023-01-12T13:01:36.466Z,3.66
2023-01-12T13:02:53.063Z,3.73
2023-01-12T13:03:51.997Z,3.74
2023-01-12T13:04:48.575Z,3.71
2023-01-12T13:05:50.979Z,3.54
2023-01-12T13:06:48.584Z,3.59
2023-01-12T13:07:52.566Z,3.48
2023-01-12T13:08:52.186Z,3.53
2023-01-12T13:09:50.245Z,3.49
2023-01-12T13:10:58.914Z,3.68
2023-01-12T13:11:59.090Z,3.66
2023-01-12T13:12:58.790Z,3.63
2023-01-12T13:14:01.308Z,3.81
2023-01-12T13:15:09.800Z,3.82
2023-01-12T13:16:18.544Z,3.89
2023-01-12T13:17:21.270Z,3.74
2023-01-12T13:18:42.170Z,3.62
2023-01-12T13:19:42.543Z,3.73
2023-01-12T13:20:56.571Z,3.68
2023-01-12T13:21:57.987Z,4.03
2023-01-12T13:22:56.723Z,3.91
2023-01-12T13:24:14.146Z,3.74
2023-01-12T13:25:16.736Z,3.59
2023-01-12T13:26:31.447Z,3.94
2023-01-12T13:27:46.988Z,3.74
2023-01-12T13:28:43.624Z,3.79
2023-01-12T13:29:41.878Z,3.83
2023-01-12T13:31:00.252Z,3.92
2023-01-12T13:32:16.526Z,3.58
2023-01-12T13:33:15.938Z,3.93
2023-01-12T13:34:37.232Z,3.86
2023-01-12T13:35:33.904Z,3.60
2023-01-12T13:36:31.563Z,3.85
2023-01-12T13:38:03.245Z,3.79
2023-01-12T13:39:06.210Z,3.60
2023-01-12T13:40:19.218Z,3.55
2023-01-12T13:41:51.787Z,3.53
2023-01-12T13:43:08.694Z,3.51
2023-01-12T13:44:10.710Z,3.68
2023-01-12T13:45:16.165Z,3.52
2023-01-12T13:46:16.683Z,3.75
2023-01-12T13:47:24.576Z,3.63
2023-01-12T13:48:22.287Z,3.46
2023-01-12T13:49:34.238Z,3.55